createdAt,value
2022-09-26T00:01:33.617Z,46.88
2022-09-26T00:06:35.305Z,46.10
2022-09-26T00:11:37.061Z,41.17
2022-09-26T00:16:38.846Z,46.63
2022-09-26T00:21:40.549Z,42.30
2022-09-26T00:26:42.125Z,41.50
2022-09-26T00:31:43.738Z,37.55
2022-09-26T00:36:45.483Z,37.17
2022-09-26T00:41:47.030Z,47.25
2022-09-26T00:46:48.575Z,59.58
2022-09-26T00:51:50.151Z,60.53
2022-09-26T00:56:51.672Z,65.78
2022-09-26T01:01:53.482Z,45.28
2022-09-26T01:06:55.419Z,41.78
2022-09-26T01:11:57.146Z,38.47
2022-09-26T01:16:58.958Z,38.65
2022-09-26T01:22:00.580Z,47.10
2022-09-26T01:27:02.403Z,55.03
2022-09-26T01:32:03.946Z,57.65
2022-09-26T01:37:05.509Z,58.03
2022-09-26T01:42:07.066Z,51.30
2022-09-26T01:47:08.607Z,58.00
2022-09-26T01:52:10.265Z,54.75
2022-09-26T01:57:11.788Z,58.38
2022-09-26T02:02:13.568Z,53.20
2022-09-26T02:07:15.188Z,49.42
2022-09-26T02:12:16.949Z,57.22
2022-09-26T02:17:18.708Z,55.58
2022-09-26T02:22:20.238Z,58.30
2022-09-26T02:27:21.893Z,53.97
2022-09-26T02:32:23.642Z,71.38
2022-09-26T02:37:25.389Z,49.90
2022-09-26T02:42:27.090Z,51.55
2022-09-26T02:47:28.907Z,49.85
2022-09-26T02:52:30.665Z,59.88
2022-09-26T02:57:32.434Z,44.92
2022-09-26T03:02:34.166Z,46.05
2022-09-26T03:07:35.926Z,45.25
2022-09-26T03:12:37.697Z,39.95
2022-09-26T03:17:39.437Z,45.22
2022-09-26T03:22:40.963Z,44.72
2022-09-26T03:27:42.624Z,55.83
2022-09-26T03:32:44.130Z,36.88
2022-09-26T03:37:45.812Z,94.78
2022-09-26T03:42:47.573Z,193.02
2022-09-26T03:47:49.121Z,50.10
2022-09-26T03:52:50.786Z,48.13
2022-09-26T03:57:52.532Z,45.45
2022-09-26T04:02:54.064Z,64.15
2022-09-26T04:07:55.737Z,45.53
2022-09-26T04:12:57.469Z,52.63
2022-09-26T04:17:58.991Z,49.63
2022-09-26T04:23:00.665Z,44.25
2022-09-26T04:28:02.433Z,41.80
2022-09-26T04:33:04.173Z,38.50
2022-09-26T04:38:05.944Z,44.65
2022-09-26T04:43:07.675Z,46.05
2022-09-26T04:48:09.435Z,61.70
2022-09-26T04:53:11.209Z,59.33
2022-09-26T04:58:12.953Z,59.10
2022-09-26T05:03:14.733Z,56.20
2022-09-26T05:08:16.379Z,49.40
2022-09-26T05:13:18.205Z,50.25
2022-09-26T05:18:19.746Z,52.78
2022-09-26T05:23:21.420Z,57.55
2022-09-26T05:28:23.174Z,52.92
2022-09-26T05:33:24.914Z,64.28
2022-09-26T05:38:26.679Z,56.30
2022-09-26T05:43:28.428Z,66.40
2022-09-26T05:48:30.202Z,48.05
2022-09-26T05:53:31.731Z,43.53
2022-09-26T05:58:33.378Z,50.95
2022-09-26T06:03:35.153Z,53.30
2022-09-26T06:08:36.876Z,54.35
2022-09-26T06:13:38.393Z,47.72
2022-09-26T06:18:40.097Z,46.95
2022-09-26T06:23:41.827Z,51.00
2022-09-26T06:28:43.595Z,49.55
2022-09-26T06:33:45.339Z,51.10
2022-09-26T06:38:47.196Z,52.60
2022-09-26T06:43:48.874Z,53.70
2022-09-26T06:48:50.616Z,49.88
2022-09-26T06:53:52.362Z,55.50
2022-09-26T06:58:54.140Z,51.38
2022-09-26T07:03:55.760Z,49.67
2022-09-26T07:09:02.637Z,51.30
2022-09-26T07:14:05.016Z,50.20
2022-09-26T07:19:06.564Z,84.47
2022-09-26T07:24:08.233Z,77.82
2022-09-26T07:29:09.958Z,67.65
2022-09-26T07:34:14.648Z,67.13
2022-09-26T07:39:19.782Z,50.05
2022-09-26T07:49:43.333Z,62.35
2022-09-26T07:54:44.956Z,64.15
2022-09-26T07:59:46.491Z,75.85
2022-09-26T08:04:48.252Z,55.30
2022-09-26T08:09:50.025Z,59.83
2022-09-26T08:14:51.772Z,59.70
2022-09-26T08:19:53.520Z,63.03
2022-09-26T08:24:55.276Z,64.22
2022-09-26T08:29:57.009Z,76.38
2022-09-26T08:34:58.785Z,72.00
2022-09-26T08:40:00.546Z,67.80
2022-09-26T08:45:02.279Z,57.10
2022-09-26T08:50:04.058Z,61.85
2022-09-26T08:55:05.783Z,59.97
2022-09-26T09:00:07.323Z,57.35
2022-09-26T09:05:08.981Z,61.08
2022-09-26T09:10:10.750Z,53.83
2022-09-26T09:15:25.295Z,54.28
2022-09-26T09:20:27.761Z,42.03
2022-09-26T09:25:29.374Z,34.00
2022-09-26T09:30:30.920Z,33.75
2022-09-26T09:35:32.607Z,36.60
2022-09-26T09:40:34.477Z,37.63
2022-09-26T09:45:36.204Z,41.65
2022-09-26T09:50:37.926Z,39.97
2022-09-26T09:55:39.450Z,42.33
2022-09-26T10:00:41.045Z,34.83
2022-09-26T10:05:42.575Z,34.33
2022-09-26T10:10:44.345Z,32.20
2022-09-26T10:15:45.928Z,34.78
2022-09-26T10:20:47.515Z,35.97
2022-09-26T10:25:49.037Z,24.40
2022-09-26T10:30:50.766Z,30.23
2022-09-26T10:35:52.471Z,28.65
2022-09-26T10:40:54.052Z,27.60
2022-09-26T10:45:55.700Z,17.63
2022-09-26T10:50:57.443Z,22.23
2022-09-26T10:55:59.176Z,26.45
2022-09-26T11:01:00.924Z,33.50
2022-09-26T11:06:02.449Z,25.08
2022-09-26T11:11:04.125Z,34.08
2022-09-26T11:16:05.940Z,30.30
2022-09-26T11:21:18.396Z,26.48
2022-09-26T11:26:29.126Z,27.08
2022-09-26T11:31:30.728Z,20.17
2022-09-26T11:36:32.638Z,20.05
2022-09-26T11:41:34.402Z,20.95
2022-09-26T11:46:36.044Z,20.35
2022-09-26T11:51:37.689Z,21.98
2022-09-26T11:56:39.242Z,17.13
2022-09-26T12:01:40.827Z,17.67
2022-09-26T12:06:42.426Z,18.90
2022-09-26T12:11:43.965Z,15.65
2022-09-26T12:16:45.717Z,20.92
2022-09-26T12:21:47.246Z,17.52
2022-09-26T12:26:49.467Z,16.80
2022-09-26T12:31:51.059Z,16.90
2022-09-26T12:36:52.755Z,12.60
2022-09-26T12:41:54.266Z,12.85
2022-09-26T12:46:55.997Z,14.55
2022-09-26T12:51:57.707Z,13.60
2022-09-26T12:56:59.244Z,11.60
2022-09-26T13:02:00.990Z,18.95
2022-09-26T13:07:18.457Z,19.70
2022-09-26T13:12:21.327Z,13.48
2022-09-26T13:17:23.097Z,11.65
2022-09-26T13:22:24.827Z,8.82
2022-09-26T13:27:26.581Z,8.25
2022-09-26T13:32:28.469Z,10.48
2022-09-26T13:37:30.113Z,7.55
2022-09-26T13:42:31.870Z,6.82
2022-09-26T13:47:33.597Z,8.20
2022-09-26T13:52:35.459Z,5.70
2022-09-26T13:57:37.121Z,7.10
2022-09-26T14:02:38.707Z,6.00
2022-09-26T14:07:40.648Z,6.13
2022-09-26T14:12:42.259Z,6.38
2022-09-26T14:17:43.839Z,5.40
2022-09-26T14:22:46.247Z,10.00
2022-09-26T14:27:47.980Z,6.20
2022-09-26T14:32:49.710Z,7.13
2022-09-26T14:37:51.255Z,5.45
2022-09-26T14:42:52.883Z,7.07
2022-09-26T14:47:54.398Z,5.95
2022-09-26T14:52:56.103Z,6.47
2022-09-26T14:57:57.859Z,7.20
2022-09-26T15:03:01.360Z,8.52
2022-09-26T15:08:03.224Z,4.55
2022-09-26T15:13:04.754Z,4.97
2022-09-26T15:18:06.450Z,5.68
2022-09-26T15:23:08.192Z,4.88
2022-09-26T15:28:09.967Z,8.93
2022-09-26T15:33:16.139Z,5.15
2022-09-26T15:38:18.173Z,4.97
2022-09-26T15:43:19.900Z,5.65
2022-09-26T15:48:21.421Z,7.22
2022-09-26T15:53:22.954Z,5.53
2022-09-26T15:58:24.557Z,6.80
2022-09-26T16:03:26.348Z,5.53
2022-09-26T16:08:28.043Z,5.55
2022-09-26T16:13:29.687Z,6.68
2022-09-26T16:18:31.260Z,6.72
2022-09-26T16:23:32.983Z,7.47
2022-09-26T16:28:34.760Z,6.70
2022-09-26T16:33:36.350Z,7.03
2022-09-26T16:38:37.964Z,11.88
2022-09-26T16:43:39.772Z,10.13
2022-09-26T16:48:41.516Z,8.13
2022-09-26T16:53:43.103Z,8.98
2022-09-26T16:58:44.675Z,14.77
2022-09-26T17:03:46.491Z,9.35
2022-09-26T17:08:48.135Z,17.65
2022-09-26T17:13:49.944Z,32.78
2022-09-26T17:18:51.709Z,24.83
2022-09-26T17:23:53.511Z,21.13
2022-09-26T17:28:55.149Z,23.52
2022-09-26T17:33:56.773Z,24.65
2022-09-26T17:38:58.456Z,24.67
2022-09-26T17:44:00.116Z,21.67
2022-09-26T17:49:01.873Z,39.80
2022-09-26T17:54:03.501Z,63.47
2022-09-26T17:59:05.183Z,31.17
2022-09-26T18:04:06.990Z,57.15
2022-09-26T18:09:08.671Z,66.45
2022-09-26T18:14:10.428Z,55.75
2022-09-26T18:19:12.229Z,43.90
2022-09-26T18:24:18.597Z,281.10
2022-09-26T18:29:21.363Z,80.28
2022-09-26T18:34:23.061Z,54.65
2022-09-26T18:39:24.836Z,41.75
2022-09-26T18:44:26.574Z,74.50
2022-09-26T18:49:28.242Z,55.95
2022-09-26T18:54:30.068Z,44.83
2022-09-26T18:59:31.830Z,44.58
2022-09-26T19:04:33.890Z,60.80
2022-09-26T19:09:35.674Z,52.00
2022-09-26T19:14:37.435Z,52.35
2022-09-26T19:19:39.172Z,49.05
2022-09-26T19:24:40.917Z,61.63
2022-09-26T19:29:42.837Z,61.95
2022-09-26T19:34:44.479Z,49.45
2022-09-26T19:39:46.189Z,47.53
2022-09-26T19:44:47.965Z,59.55
2022-09-26T19:49:49.683Z,54.72
2022-09-26T19:54:51.464Z,45.45
2022-09-26T19:59:53.203Z,43.05
2022-09-26T20:04:54.930Z,44.70
2022-09-26T20:09:56.649Z,97.38
2022-09-26T20:14:58.392Z,66.80
2022-09-26T20:20:00.179Z,70.38
2022-09-26T20:25:01.907Z,60.05
2022-09-26T20:30:03.648Z,64.85
2022-09-26T20:35:05.435Z,56.03
2022-09-26T20:40:07.202Z,50.22
2022-09-26T20:45:08.907Z,57.08
2022-09-26T20:50:10.671Z,52.78
2022-09-26T20:55:12.422Z,48.28
2022-09-26T21:00:14.197Z,50.50
2022-09-26T21:05:15.922Z,67.13
2022-09-26T21:10:17.706Z,72.30
2022-09-26T21:15:19.448Z,63.38
2022-09-26T21:20:21.218Z,59.92
2022-09-26T21:25:22.749Z,47.65
2022-09-26T21:30:24.284Z,44.60
2022-09-26T21:35:25.856Z,43.78
2022-09-26T21:40:27.508Z,54.47
2022-09-26T21:45:29.345Z,45.30
2022-09-26T21:50:31.101Z,51.47
2022-09-26T21:55:32.890Z,46.33
2022-09-26T22:00:34.608Z,47.72
2022-09-26T22:05:36.343Z,52.28
2022-09-26T22:10:37.874Z,51.95
2022-09-26T22:15:39.536Z,48.05
2022-09-26T22:20:41.334Z,51.92
2022-09-26T22:25:43.167Z,54.95
2022-09-26T22:30:44.834Z,54.30
2022-09-26T22:35:46.562Z,51.92
2022-09-26T22:40:48.398Z,48.47
2022-09-26T22:45:50.136Z,53.10
2022-09-26T22:50:51.821Z,52.65
2022-09-26T22:55:53.583Z,43.42
2022-09-26T23:00:55.368Z,44.85
2022-09-26T23:05:56.938Z,48.30
2022-09-26T23:10:58.526Z,49.97
2022-09-26T23:16:00.331Z,44.78
2022-09-26T23:21:02.077Z,46.95
2022-09-26T23:26:03.665Z,46.03
2022-09-26T23:31:05.258Z,47.80
2022-09-26T23:36:07.009Z,50.53
2022-09-26T23:41:08.748Z,46.47
2022-09-26T23:46:10.564Z,49.05
2022-09-26T23:51:12.288Z,42.28
2022-09-26T23:56:13.969Z,41.65
